Startpagina
METAR-TAF:

METAR-TAF

Vliegvelden :

Portage Glacier, Alaska, Verenigde Staten

breedte: 60-47N, lengte: 148-50W, hoogte: 29 m

Actueel weer

Dit bericht is 22 minuten geleden gemaakt, om 12:53 UTC
Wind 7 kt uit het oosten
Temperatuur 11°C
Vochtigheid 82%
Druk 1017 hPa
Zicht: 16.1 km
Geheel bewolkt op 3400 ft

METAR: PATO 171253Z AUTO 08007KT 10SM OVC034 11/08 A3004 RMK AO2 SLP173 T01110078 TSNO

Tijdstip: 05:15 (13:15 UTC)


TAF: ontbreekt

Waarnemingen en weersverwachtingen van meer dan 4000 vliegvelden (METAR en TAF).

De beschikbare stations zijn de gele en rode punten op de kaart.

Ga met uw muis naar het station om de naam te zien.

Klik dan om waarnemingen en weersverwachtingen te zien.

kaart wijzigen: klik op de groene knoppen met een zwart kruis om in te zoomen, op de groene knop met een streepje om uit te zoomen of op de groene pijlen voor aangrenzende kaarten.


METAR-TAF: